Time;durP1;ratioP1;P1;durP2;ratioP2;P2;SDS_P1;SDS_P2;PMS_P1;PMS_P2;Temp;Humidity;BMP_temperature;BMP_pressure;BME280_temperature;BME280_humidity;BME280_pressure;Samples;Min_cycle;Max_cycle;Signal;HPM_P1;HPM_P2
2021/07/14 00:02:04;;;;;;;22.35;16.50;;;22.50;99.90;;;;;;4916790;29;20262;-89
2021/07/14 00:04:30;;;;;;;23.95;16.27;;;22.50;99.90;;;;;;4933758;29;20211;-88
2021/07/14 00:06:56;;;;;;;20.88;16.35;;;22.50;99.90;;;;;;4921855;29;20537;-88
2021/07/14 00:09:22;;;;;;;22.58;15.02;;;22.50;99.90;;;;;;4932378;29;20192;-88
2021/07/14 00:11:58;;;;;;;18.23;16.33;;;22.50;99.90;;;;;;4917214;29;20196;-87
2021/07/14 00:14:34;;;;;;;23.00;17.08;;;22.50;99.90;;;;;;4902403;29;20259;-88
2021/07/14 00:22:31;;;;;;;20.65;15.52;;;22.30;99.90;;;;;;4933636;29;20291;-88
2021/07/14 00:24:57;;;;;;;25.85;17.52;;;22.30;99.90;;;;;;4933281;29;20705;-88
2021/07/14 00:27:24;;;;;;;22.80;16.88;;;22.30;99.90;;;;;;4934019;29;20212;-88
2021/07/14 00:29:57;;;;;;;19.60;16.50;;;22.20;99.90;;;;;;4933901;29;20184;-87
2021/07/14 00:32:24;;;;;;;21.02;16.40;;;22.30;99.90;;;;;;4933746;29;20275;-87
2021/07/14 00:34:50;;;;;;;21.05;17.00;;;22.20;99.90;;;;;;4916721;29;20211;-87
2021/07/14 00:37:18;;;;;;;20.98;15.95;;;22.20;99.90;;;;;;4933685;29;20196;-87
2021/07/14 00:39:44;;;;;;;20.58;17.48;;;22.20;99.90;;;;;;4933406;29;20548;-85
2021/07/14 00:42:11;;;;;;;22.58;17.17;;;22.20;99.90;;;;;;4903919;29;20200;-87
2021/07/14 00:44:36;;;;;;;20.25;16.92;;;22.10;99.90;;;;;;4933691;29;20250;-88
2021/07/14 00:47:04;;;;;;;18.30;15.98;;;22.10;99.90;;;;;;4884921;29;20220;-87
2021/07/14 00:49:31;;;;;;;19.35;16.42;;;22.10;99.90;;;;;;4916707;29;20219;-87
2021/07/14 00:51:57;;;;;;;23.15;16.52;;;22.10;99.90;;;;;;4936527;29;20287;-85
2021/07/14 00:54:23;;;;;;;20.15;16.52;;;22.00;99.90;;;;;;4937027;29;20195;-87
2021/07/14 00:56:48;;;;;;;21.08;17.05;;;22.00;99.90;;;;;;4936845;29;20242;-86
2021/07/14 00:59:14;;;;;;;21.70;16.52;;;22.00;99.90;;;;;;4919854;29;20202;-89
2021/07/14 01:01:42;;;;;;;24.58;17.38;;;22.00;99.90;;;;;;4920072;29;20711;-88
2021/07/14 01:04:23;;;;;;;21.67;16.83;;;22.00;99.90;;;;;;4919165;29;20210;-88
2021/07/14 01:06:52;;;;;;;19.80;16.48;;;21.90;99.90;;;;;;4936885;29;20259;-87
2021/07/14 01:09:28;;;;;;;23.92;17.92;;;21.90;99.90;;;;;;4936544;29;20513;-88
2021/07/14 01:12:00;;;;;;;20.63;16.45;;;21.80;99.90;;;;;;4913329;29;20206;-88
2021/07/14 01:14:40;;;;;;;22.10;17.52;;;21.80;99.90;;;;;;4936865;29;20187;-89
2021/07/14 01:17:11;;;;;;;24.05;17.17;;;21.70;99.90;;;;;;4936555;29;20184;-88
2021/07/14 01:19:55;;;;;;;21.02;17.52;;;21.70;99.90;;;;;;4938569;29;20577;-88
2021/07/14 01:22:41;;;;;;;21.23;17.55;;;21.70;99.90;;;;;;4935922;29;20317;-88
2021/07/14 01:25:15;;;;;;;23.80;18.05;;;21.70;99.90;;;;;;4867752;29;20228;-88
2021/07/14 01:27:42;;;;;;;22.60;17.65;;;21.70;99.90;;;;;;4936819;29;20184;-88
2021/07/14 01:30:15;;;;;;;21.08;17.52;;;21.60;99.90;;;;;;4936453;29;20211;-87
2021/07/14 01:32:41;;;;;;;29.98;17.83;;;21.60;99.90;;;;;;4936260;29;20199;-87
2021/07/14 01:35:21;;;;;;;24.52;18.35;;;21.60;99.90;;;;;;4935935;29;20278;-87
2021/07/14 01:37:49;;;;;;;22.92;17.98;;;21.60;99.90;;;;;;4936927;29;20751;-88
2021/07/14 01:40:17;;;;;;;23.67;17.45;;;21.60;99.90;;;;;;4919075;29;20717;-88
2021/07/14 01:42:46;;;;;;;21.05;17.50;;;21.60;99.90;;;;;;4919017;29;20176;-88
2021/07/14 01:45:12;;;;;;;22.83;17.60;;;21.60;99.90;;;;;;4935854;29;20245;-87
2021/07/14 01:47:40;;;;;;;24.77;17.77;;;21.50;99.90;;;;;;4936349;29;20248;-87
2021/07/14 01:50:07;;;;;;;25.63;17.90;;;21.50;99.90;;;;;;4935831;29;20191;-88
2021/07/14 01:52:33;;;;;;;27.13;17.20;;;21.50;99.90;;;;;;4935723;29;20200;-87
2021/07/14 01:55:04;;;;;;;21.42;17.63;;;21.50;99.90;;;;;;4936208;29;20208;-87
2021/07/14 01:57:33;;;;;;;20.27;16.85;;;21.50;99.90;;;;;;4922982;29;20665;-87
2021/07/14 02:00:01;;;;;;;24.30;18.73;;;21.60;99.90;;;;;;4936143;29;20203;-88
2021/07/14 02:02:30;;;;;;;24.60;17.58;;;21.60;99.90;;;;;;4918489;29;20180;-88
2021/07/14 02:04:57;;;;;;;20.15;16.48;;;21.60;99.90;;;;;;4935946;29;20216;-88
2021/07/14 02:07:28;;;;;;;21.40;16.88;;;21.60;99.90;;;;;;4935547;29;20690;-88
2021/07/14 02:09:56;;;;;;;27.05;17.52;;;21.60;99.90;;;;;;4933305;29;20185;-88
2021/07/14 02:12:23;;;;;;;23.25;17.63;;;21.60;99.90;;;;;;4931977;29;20186;-88
2021/07/14 02:14:58;;;;;;;25.77;17.50;;;21.60;99.90;;;;;;4935951;29;20231;-88
2021/07/14 02:17:28;;;;;;;25.80;19.17;;;21.60;99.90;;;;;;4935368;29;20179;-88
2021/07/14 02:19:55;;;;;;;24.75;17.42;;;21.60;99.90;;;;;;4935747;29;20239;-87
2021/07/14 02:22:21;;;;;;;25.48;17.02;;;21.60;99.90;;;;;;4935222;29;20183;-87
2021/07/14 02:24:46;;;;;;;21.05;18.10;;;21.60;99.90;;;;;;4922258;29;20568;-88
2021/07/14 02:27:12;;;;;;;23.27;16.67;;;21.60;99.90;;;;;;4935182;29;20195;-87
2021/07/14 02:29:39;;;;;;;21.55;17.33;;;21.60;99.90;;;;;;4918336;29;20673;-87
2021/07/14 02:32:07;;;;;;;23.45;17.30;;;21.50;99.90;;;;;;4935274;29;20219;-86
2021/07/14 02:34:33;;;;;;;24.35;17.60;;;21.50;99.90;;;;;;4918846;29;20204;-88
2021/07/14 02:37:02;;;;;;;26.75;17.92;;;21.50;99.90;;;;;;4918504;29;20219;-87
2021/07/14 02:39:28;;;;;;;22.60;17.88;;;21.50;99.90;;;;;;4935442;29;20188;-87
2021/07/14 02:42:05;;;;;;;25.63;18.02;;;21.50;99.90;;;;;;4902490;29;20192;-87
2021/07/14 02:44:39;;;;;;;20.42;17.65;;;21.50;99.90;;;;;;4934995;29;20266;-87
2021/07/14 02:47:07;;;;;;;29.33;18.13;;;21.40;99.90;;;;;;4935416;29;20187;-87
2021/07/14 02:49:36;;;;;;;24.08;17.75;;;21.50;99.90;;;;;;4934719;29;20195;-88
2021/07/14 02:52:02;;;;;;;28.77;18.17;;;21.40;99.90;;;;;;4934636;29;20232;-86
2021/07/14 02:54:29;;;;;;;27.20;17.98;;;21.40;99.90;;;;;;4917666;29;20700;-87
2021/07/14 02:57:01;;;;;;;26.48;18.00;;;21.50;99.90;;;;;;4934826;29;20195;-87
2021/07/14 02:59:32;;;;;;;29.67;18.55;;;21.50;99.90;;;;;;4934743;29;20179;-87
2021/07/14 03:02:01;;;;;;;24.73;18.00;;;21.50;99.90;;;;;;4917832;29;20184;-87
2021/07/14 03:04:32;;;;;;;28.13;17.65;;;21.50;99.90;;;;;;4934867;29;20207;-86
2021/07/14 03:07:02;;;;;;;23.90;18.42;;;21.50;99.90;;;;;;4934721;29;20275;-87
2021/07/14 03:09:37;;;;;;;25.92;19.98;;;21.60;99.90;;;;;;4934233;29;20623;-88
2021/07/14 03:12:05;;;;;;;24.77;18.05;;;21.60;99.90;;;;;;4928869;29;20278;-87
2021/07/14 03:14:31;;;;;;;28.20;17.23;;;21.60;99.90;;;;;;4934035;29;20657;-87
2021/07/14 03:16:57;;;;;;;25.48;18.90;;;21.60;99.90;;;;;;4934712;29;20196;-87
2021/07/14 03:19:25;;;;;;;24.05;17.23;;;21.60;99.90;;;;;;4916901;29;20275;-87
2021/07/14 03:21:51;;;;;;;29.05;18.20;;;21.60;99.90;;;;;;4934484;29;20224;-87
2021/07/14 03:24:17;;;;;;;24.90;18.23;;;21.60;99.90;;;;;;4921567;29;20204;-87
2021/07/14 03:26:43;;;;;;;29.45;18.20;;;21.60;99.90;;;;;;4916507;29;20195;-87
2021/07/14 03:29:11;;;;;;;30.95;18.63;;;21.60;99.90;;;;;;4917670;29;20223;-88
2021/07/14 03:31:38;;;;;;;29.45;18.20;;;21.60;99.90;;;;;;4933811;29;20192;-89
2021/07/14 03:34:04;;;;;;;31.20;17.50;;;21.60;99.90;;;;;;4886086;29;20220;-88
2021/07/14 03:36:30;;;;;;;28.77;19.08;;;21.60;99.90;;;;;;4901259;29;20199;-87
2021/07/14 03:38:56;;;;;;;24.45;17.60;;;21.60;99.90;;;;;;4934384;29;20180;-87
2021/07/14 03:41:22;;;;;;;31.27;20.42;;;21.60;99.90;;;;;;4917129;29;20202;-88
2021/07/14 03:43:49;;;;;;;26.55;19.77;;;21.60;99.90;;;;;;4933592;29;20184;-87
2021/07/14 03:46:17;;;;;;;31.40;19.75;;;21.60;99.90;;;;;;4934108;29;20203;-88
2021/07/14 03:48:43;;;;;;;26.52;19.33;;;21.60;99.90;;;;;;4934141;29;20220;-87
2021/07/14 03:51:09;;;;;;;21.73;18.17;;;21.70;99.90;;;;;;4933996;29;20290;-88
2021/07/14 03:53:36;;;;;;;28.25;19.65;;;21.70;99.90;;;;;;4916456;29;20195;-88
2021/07/14 03:56:02;;;;;;;31.00;19.67;;;21.70;99.90;;;;;;4917110;29;20587;-88
2021/07/14 03:58:28;;;;;;;28.13;18.42;;;21.80;99.90;;;;;;4903691;29;20243;-87
2021/07/14 04:00:54;;;;;;;23.92;19.50;;;21.90;99.90;;;;;;4934192;29;20211;-88
2021/07/14 04:03:22;;;;;;;23.30;18.20;;;22.00;99.90;;;;;;4916713;29;20266;-88
2021/07/14 04:05:53;;;;;;;25.70;19.42;;;22.00;99.90;;;;;;4916763;29;20204;-87
2021/07/14 04:08:23;;;;;;;25.23;18.95;;;22.10;99.90;;;;;;4934278;29;20240;-87
2021/07/14 04:10:48;;;;;;;26.20;18.92;;;22.10;99.90;;;;;;4927369;29;20219;-87
2021/07/14 04:13:14;;;;;;;27.42;18.92;;;22.20;99.90;;;;;;4916702;29;20227;-88
2021/07/14 04:15:40;;;;;;;30.17;19.48;;;22.30;99.90;;;;;;4916397;29;20195;-89
2021/07/14 04:18:08;;;;;;;32.08;18.98;;;22.30;99.90;;;;;;4926408;29;20191;-88
2021/07/14 04:20:33;;;;;;;29.70;19.73;;;22.40;99.90;;;;;;4926017;29;20246;-88
2021/07/14 04:22:59;;;;;;;23.52;18.40;;;22.50;99.90;;;;;;4899545;29;20585;-87
2021/07/14 04:25:25;;;;;;;25.45;18.85;;;22.50;99.90;;;;;;4906566;29;20219;-90
2021/07/14 04:27:51;;;;;;;25.20;19.15;;;22.60;99.90;;;;;;4921239;29;20195;-88
2021/07/14 04:30:17;;;;;;;25.05;19.13;;;22.60;99.90;;;;;;4921765;29;20199;-87
2021/07/14 04:32:43;;;;;;;28.48;18.60;;;22.70;99.90;;;;;;4919503;29;21016;-88
2021/07/14 04:35:09;;;;;;;21.20;18.40;;;22.80;99.90;;;;;;4918767;29;20211;-89
2021/07/14 04:37:35;;;;;;;26.75;18.45;;;22.80;99.90;;;;;;4937347;29;20246;-89
2021/07/14 04:40:03;;;;;;;23.85;18.55;;;22.90;99.90;;;;;;4920508;29;20672;-89
2021/07/14 04:42:28;;;;;;;28.52;18.80;;;22.90;99.90;;;;;;4936806;29;20621;-89
2021/07/14 04:44:54;;;;;;;24.25;18.73;;;23.00;99.90;;;;;;4937338;29;20208;-90
2021/07/14 04:47:20;;;;;;;22.42;17.90;;;23.10;99.90;;;;;;4937458;29;20702;-88
2021/07/14 04:49:45;;;;;;;25.95;18.58;;;23.20;99.90;;;;;;4937075;29;20202;-87
2021/07/14 04:52:11;;;;;;;27.70;19.70;;;23.30;99.90;;;;;;4919531;29;20246;-86
2021/07/14 04:54:39;;;;;;;27.63;19.77;;;23.30;99.90;;;;;;4906843;29;20192;-87
2021/07/14 04:57:05;;;;;;;21.10;18.17;;;23.40;99.90;;;;;;4934255;29;20595;-90
2021/07/14 04:59:34;;;;;;;23.15;19.70;;;23.50;99.90;;;;;;4919737;29;20211;-89
2021/07/14 05:02:04;;;;;;;26.75;19.65;;;23.60;99.90;;;;;;4936807;29;20195;-86
2021/07/14 05:04:31;;;;;;;25.67;18.17;;;23.70;99.90;;;;;;4936352;29;20208;-87
2021/07/14 05:06:56;;;;;;;27.45;18.20;;;23.80;99.90;;;;;;4931553;29;20658;-88
2021/07/14 05:09:22;;;;;;;27.77;19.10;;;23.80;99.90;;;;;;4888474;29;20196;-88
2021/07/14 05:11:47;;;;;;;26.58;17.05;;;23.90;99.90;;;;;;4933130;29;20192;-88
2021/07/14 05:14:13;;;;;;;26.50;17.17;;;24.00;99.90;;;;;;4919495;29;20187;-90
2021/07/14 05:16:39;;;;;;;21.70;17.80;;;24.10;99.90;;;;;;4936111;29;20227;-87
2021/07/14 05:19:05;;;;;;;25.58;18.25;;;24.20;99.90;;;;;;4919259;29;20188;-88
2021/07/14 05:21:31;;;;;;;20.85;18.45;;;24.20;99.90;;;;;;4900192;29;20184;-88
2021/07/14 05:23:58;;;;;;;25.88;18.38;;;24.30;99.90;;;;;;4929615;29;20184;-89
2021/07/14 05:26:25;;;;;;;32.15;18.65;;;24.40;99.90;;;;;;4935729;29;20230;-92
2021/07/14 05:28:50;;;;;;;26.38;18.30;;;24.50;99.90;;;;;;4918859;29;20184;-90
2021/07/14 05:31:17;;;;;;;23.73;17.20;;;24.60;99.90;;;;;;4918697;29;20259;-90
2021/07/14 05:33:43;;;;;;;24.95;17.52;;;24.70;99.90;;;;;;4933014;29;20183;-92
2021/07/14 05:36:11;;;;;;;23.55;16.95;;;24.80;99.90;;;;;;4896267;29;20707;-90
2021/07/14 05:38:37;;;;;;;24.10;17.63;;;24.80;99.90;;;;;;4926066;29;20212;-89
2021/07/14 05:41:03;;;;;;;21.08;16.08;;;24.90;99.90;;;;;;4910993;29;20184;-90
2021/07/14 05:43:29;;;;;;;19.85;16.67;;;25.00;99.90;;;;;;4906880;29;20184;-90
2021/07/14 05:45:55;;;;;;;23.88;16.67;;;25.10;99.90;;;;;;4935425;29;20211;-89
2021/07/14 05:48:21;;;;;;;25.77;17.35;;;25.30;99.90;;;;;;4919076;29;20192;-92
2021/07/14 05:50:47;;;;;;;22.25;16.05;;;25.40;99.90;;;;;;4934845;29;20238;-89
2021/07/14 05:53:13;;;;;;;23.30;17.00;;;25.40;99.90;;;;;;4934903;29;20188;-88
2021/07/14 05:55:38;;;;;;;26.83;16.70;;;25.50;99.90;;;;;;4918196;29;20716;-88
2021/07/14 05:58:04;;;;;;;19.30;14.45;;;25.70;99.90;;;;;;4935661;29;20188;-88
2021/07/14 06:00:30;;;;;;;21.45;15.43;;;25.70;99.90;;;;;;4913480;29;20193;-89
2021/07/14 06:02:56;;;;;;;22.15;15.13;;;25.80;99.90;;;;;;4899857;29;20260;-90
2021/07/14 06:05:22;;;;;;;27.15;15.82;;;25.90;99.90;;;;;;4898232;29;20685;-90
2021/07/14 06:07:48;;;;;;;26.85;15.30;;;26.00;99.90;;;;;;4914678;29;20188;-89
2021/07/14 06:10:14;;;;;;;16.58;14.50;;;26.10;99.90;;;;;;4903796;29;20199;-89
2021/07/14 06:12:40;;;;;;;23.92;14.27;;;26.20;99.90;;;;;;4933341;29;20187;-88
2021/07/14 06:15:07;;;;;;;24.05;15.25;;;26.20;99.90;;;;;;4917048;29;20196;-90
2021/07/14 06:17:33;;;;;;;20.70;15.90;;;26.30;99.90;;;;;;4933959;29;20180;-89
2021/07/14 06:19:59;;;;;;;21.83;16.35;;;26.30;99.90;;;;;;4916795;29;20239;-88
2021/07/14 06:22:24;;;;;;;25.35;16.50;;;26.40;99.90;;;;;;4934159;29;20215;-89
2021/07/14 06:30:48;;;;;;;16.20;14.50;;;26.70;99.90;;;;;;5808969;23;20298;-89
2021/07/14 06:33:14;;;;;;;17.75;14.70;;;26.80;99.90;;;;;;4913628;29;20596;-89
2021/07/14 06:35:41;;;;;;;25.40;15.40;;;26.90;99.90;;;;;;4915259;29;20203;-94
2021/07/14 06:38:08;;;;;;;21.13;15.40;;;27.00;99.90;;;;;;4906820;29;20632;-90
2021/07/14 06:40:37;;;;;;;21.52;14.48;;;27.00;99.90;;;;;;4910847;29;20188;-89
2021/07/14 06:43:07;;;;;;;17.48;14.45;;;27.10;99.90;;;;;;4900634;29;20192;-89
2021/07/14 06:45:33;;;;;;;16.95;13.88;;;27.10;99.90;;;;;;4916256;29;20692;-88
2021/07/14 06:47:59;;;;;;;19.75;13.65;;;27.20;99.90;;;;;;4900884;29;20224;-88
2021/07/14 06:50:25;;;;;;;19.85;14.32;;;27.30;99.90;;;;;;4890154;29;20204;-90
2021/07/14 06:52:51;;;;;;;22.30;14.73;;;27.40;99.90;;;;;;4899449;29;20235;-90
2021/07/14 06:55:17;;;;;;;15.63;13.77;;;27.40;99.90;;;;;;4928123;29;20239;-88
2021/07/14 06:57:44;;;;;;;20.20;14.75;;;27.40;99.90;;;;;;4898557;29;20284;-89
2021/07/14 07:00:12;;;;;;;21.83;13.82;;;27.50;99.90;;;;;;4915731;29;20192;-88
2021/07/14 07:02:38;;;;;;;16.02;13.38;;;27.60;99.90;;;;;;4882827;29;20196;-88
2021/07/14 07:05:07;;;;;;;18.90;14.48;;;27.70;99.90;;;;;;4918682;29;20234;-90
2021/07/14 07:07:32;;;;;;;17.60;14.50;;;27.70;99.90;;;;;;4925703;29;20262;-91
2021/07/14 07:09:59;;;;;;;17.10;13.63;;;27.80;99.90;;;;;;4898502;29;20193;-89
2021/07/14 07:12:25;;;;;;;22.67;14.43;;;27.80;99.90;;;;;;4915281;29;20239;-91
2021/07/14 07:14:50;;;;;;;24.38;14.80;;;27.90;99.90;;;;;;4867388;29;20934;-92
2021/07/14 07:17:16;;;;;;;17.40;13.55;;;28.00;99.90;;;;;;4898546;29;20188;-90
2021/07/14 07:19:42;;;;;;;24.83;13.88;;;28.10;99.90;;;;;;4915440;29;20820;-93
2021/07/14 07:22:07;;;;;;;20.65;13.65;;;28.20;99.90;;;;;;4898157;29;20197;-93
2021/07/14 07:24:33;;;;;;;17.77;13.73;;;28.30;99.90;;;;;;4916003;29;20224;-93
2021/07/14 07:27:00;;;;;;;17.50;13.30;;;28.30;99.90;;;;;;4915039;29;20191;-91
2021/07/14 07:29:26;;;;;;;17.45;14.32;;;28.30;99.90;;;;;;4915666;29;20191;-91
2021/07/14 07:31:52;;;;;;;17.83;14.07;;;28.40;99.90;;;;;;4911769;29;20248;-91
2021/07/14 07:34:19;;;;;;;17.20;14.02;;;28.50;99.90;;;;;;4915259;29;20184;-89
2021/07/14 07:36:46;;;;;;;18.38;13.75;;;28.50;99.90;;;;;;4915158;29;20184;-93
2021/07/14 07:39:14;;;;;;;17.17;13.35;;;28.60;99.90;;;;;;4922383;29;20271;-91
2021/07/14 07:41:40;;;;;;;15.95;13.05;;;28.60;99.90;;;;;;4925342;29;20624;-90
2021/07/14 07:44:06;;;;;;;19.45;14.15;;;28.50;99.90;;;;;;4915141;29;20220;-91
2021/07/14 07:46:33;;;;;;;15.43;12.90;;;28.70;99.90;;;;;;4915688;29;20227;-91
2021/07/14 07:48:59;;;;;;;22.80;13.93;;;28.80;99.90;;;;;;4916415;29;20180;-94
2021/07/14 07:51:25;;;;;;;18.88;12.60;;;28.90;99.90;;;;;;4898631;29;20192;-91
2021/07/14 07:53:51;;;;;;;17.10;13.90;;;29.00;99.90;;;;;;4915572;29;20189;-92
2021/07/14 07:56:17;;;;;;;17.10;12.90;;;29.10;99.90;;;;;;4883239;29;20559;-93
2021/07/14 07:58:44;;;;;;;17.77;12.80;;;29.30;99.90;;;;;;4923162;29;20271;-90
2021/07/14 08:01:10;;;;;;;14.15;12.30;;;29.40;99.90;;;;;;4920711;29;20230;-92
2021/07/14 08:03:36;;;;;;;14.55;11.98;;;29.40;99.90;;;;;;4922579;29;20553;-94
2021/07/14 08:06:01;;;;;;;17.17;12.73;;;29.40;99.90;;;;;;4913722;29;20297;-90
2021/07/14 08:08:27;;;;;;;14.35;12.43;;;29.40;99.90;;;;;;4926130;29;20235;-92
2021/07/14 08:10:56;;;;;;;17.88;12.35;;;29.60;99.90;;;;;;4919626;29;20638;-95
2021/07/14 08:13:22;;;;;;;19.55;12.25;;;29.60;99.90;;;;;;4921344;29;20668;-93
2021/07/14 08:15:48;;;;;;;18.08;12.82;;;29.60;99.90;;;;;;4920278;29;20656;-94
2021/07/14 08:18:14;;;;;;;17.60;12.55;;;29.70;99.90;;;;;;4920815;29;20195;-96
2021/07/14 08:20:40;;;;;;;18.02;12.15;;;29.80;99.90;;;;;;4920645;29;20203;-94
2021/07/14 08:23:06;;;;;;;14.02;12.50;;;29.80;99.90;;;;;;4921684;29;20200;-95
2021/07/14 08:25:32;;;;;;;16.88;12.40;;;29.90;99.90;;;;;;4924037;29;20223;-92
2021/07/14 08:27:57;;;;;;;16.70;12.32;;;29.80;99.90;;;;;;4919522;29;20228;-94
2021/07/14 08:30:23;;;;;;;17.02;13.02;;;29.80;99.90;;;;;;4921300;29;20264;-92
2021/07/14 08:32:48;;;;;;;15.60;12.02;;;29.90;99.90;;;;;;4917863;29;20599;-91
2021/07/14 08:35:14;;;;;;;16.23;12.88;;;30.00;99.90;;;;;;4917511;29;20219;-91
2021/07/14 08:37:40;;;;;;;15.05;11.93;;;30.00;99.90;;;;;;4917534;29;20227;-94
2021/07/14 08:40:08;;;;;;;13.88;12.13;;;30.10;99.90;;;;;;4927258;29;20221;-91
2021/07/14 08:42:36;;;;;;;14.43;12.27;;;30.30;99.90;;;;;;4921102;29;20188;-90
2021/07/14 08:45:05;;;;;;;15.02;12.52;;;30.30;99.90;;;;;;4918228;29;20228;-91
2021/07/14 08:47:32;;;;;;;21.88;13.15;;;30.30;99.90;;;;;;4917051;29;20279;-89
2021/07/14 08:49:58;;;;;;;15.38;12.20;;;30.30;99.90;;;;;;4921067;29;20223;-94
2021/07/14 08:52:24;;;;;;;23.00;13.40;;;30.30;99.90;;;;;;4901284;29;20197;-89
2021/07/14 08:54:50;;;;;;;15.80;12.93;;;30.30;99.90;;;;;;4903961;29;20556;-88
2021/07/14 08:57:17;;;;;;;15.18;12.70;;;30.30;99.90;;;;;;4918289;29;20192;-90
2021/07/14 08:59:44;;;;;;;13.88;12.13;;;30.30;99.90;;;;;;4916873;29;20724;-89
2021/07/14 09:02:10;;;;;;;18.55;12.27;;;30.50;99.90;;;;;;4916437;29;20201;-93
2021/07/14 09:04:37;;;;;;;22.08;14.32;;;30.70;99.90;;;;;;4916459;29;20275;-92
2021/07/14 09:07:04;;;;;;;18.85;11.93;;;30.80;99.90;;;;;;4916728;29;20644;-93
2021/07/14 09:09:30;;;;;;;17.05;12.13;;;31.10;99.90;;;;;;4917046;29;20192;-93
2021/07/14 09:11:59;;;;;;;15.45;12.18;;;31.20;99.90;;;;;;4918243;29;20185;-92
2021/07/14 09:14:29;;;;;;;14.05;11.38;;;31.30;99.90;;;;;;4916628;29;20672;-92
2021/07/14 09:16:56;;;;;;;15.10;12.32;;;31.30;99.90;;;;;;4917350;29;20252;-93
2021/07/14 09:19:28;;;;;;;22.40;11.68;;;31.40;99.90;;;;;;4920319;29;20208;-94
2021/07/14 09:21:54;;;;;;;17.00;12.13;;;31.40;99.90;;;;;;4917695;29;20247;-91
2021/07/14 09:24:27;;;;;;;14.65;11.27;;;31.50;99.90;;;;;;4918645;29;20653;-92
2021/07/14 09:26:55;;;;;;;17.83;12.32;;;31.60;99.90;;;;;;4921343;29;20196;-88
2021/07/14 09:29:21;;;;;;;15.77;12.07;;;31.50;99.90;;;;;;4917501;29;20661;-91
2021/07/14 09:31:47;;;;;;;13.90;11.05;;;31.60;99.90;;;;;;4917097;29;20249;-90
2021/07/14 09:34:26;;;;;;;15.10;11.32;;;31.70;99.90;;;;;;4900299;29;20218;-92
2021/07/14 09:37:04;;;;;;;19.42;12.52;;;31.80;99.90;;;;;;4917446;29;20188;-92
2021/07/14 09:39:31;;;;;;;16.70;12.30;;;31.90;99.90;;;;;;4922802;29;20180;-91
2021/07/14 09:42:08;;;;;;;20.63;13.10;;;32.10;99.90;;;;;;4907395;29;20192;-91
2021/07/14 09:44:43;;;;;;;15.32;12.77;;;32.00;99.90;;;;;;4900021;29;20247;-90
2021/07/14 09:47:20;;;;;;;14.32;11.85;;;32.10;99.90;;;;;;4901425;29;20235;-90
2021/07/14 09:49:47;;;;;;;13.02;11.07;;;32.10;99.90;;;;;;4917663;29;20548;-93
2021/07/14 09:52:16;;;;;;;13.80;11.10;;;32.00;99.90;;;;;;4884348;29;20295;-91
2021/07/14 09:54:42;;;;;;;16.02;11.73;;;31.90;99.90;;;;;;4916756;29;20658;-92
2021/07/14 09:57:18;;;;;;;16.75;11.32;;;31.70;99.90;;;;;;4916788;29;20193;-90
2021/07/14 09:59:46;;;;;;;16.40;11.57;;;31.90;99.90;;;;;;4899961;29;20184;-91
2021/07/14 10:02:16;;;;;;;23.05;11.60;;;32.00;99.90;;;;;;4916407;29;20224;-91
2021/07/14 10:04:44;;;;;;;13.90;12.13;;;32.10;99.90;;;;;;4904333;29;20802;-95
2021/07/14 10:07:26;;;;;;;14.50;11.80;;;32.30;99.90;;;;;;4900033;29;20188;-89
2021/07/14 10:09:54;;;;;;;18.25;11.38;;;32.50;99.90;;;;;;4928369;29;20540;-90
2021/07/14 10:12:36;;;;;;;16.65;11.85;;;32.70;99.90;;;;;;4931910;29;20282;-91
2021/07/14 10:15:08;;;;;;;13.52;10.60;;;32.70;99.90;;;;;;4913567;29;20266;-90
2021/07/14 10:17:35;;;;;;;19.50;12.27;;;32.80;99.90;;;;;;4934523;29;20196;-88
2021/07/14 10:20:21;;;;;;;19.98;11.45;;;32.80;99.90;;;;;;4930002;29;20631;-88
2021/07/14 10:23:00;;;;;;;23.05;11.35;;;32.90;99.90;;;;;;4913410;29;20199;-90
2021/07/14 10:25:27;;;;;;;14.23;11.80;;;33.10;99.90;;;;;;4904363;29;20243;-90
2021/07/14 10:27:55;;;;;;;19.52;11.75;;;33.00;99.90;;;;;;4910246;29;20199;-88
2021/07/14 10:30:22;;;;;;;19.45;11.40;;;33.00;99.90;;;;;;4913979;29;20243;-92
2021/07/14 10:32:49;;;;;;;14.18;10.82;;;33.10;99.90;;;;;;4922413;29;20228;-92
2021/07/14 10:35:19;;;;;;;15.05;11.60;;;33.10;99.90;;;;;;4917352;29;20671;-89
2021/07/14 10:37:51;;;;;;;19.40;12.52;;;33.10;99.90;;;;;;4919040;29;20223;-92
2021/07/14 10:40:22;;;;;;;16.55;12.20;;;33.00;99.90;;;;;;4928217;29;20695;-91
2021/07/14 10:42:49;;;;;;;19.08;11.88;;;33.10;99.90;;;;;;4929165;29;20188;-90
2021/07/14 10:45:15;;;;;;;15.13;11.75;;;33.20;99.90;;;;;;4914196;29;20220;-90
2021/07/14 10:47:41;;;;;;;14.98;11.52;;;33.40;99.90;;;;;;4915878;29;20214;-91
2021/07/14 10:50:09;;;;;;;16.65;11.55;;;33.10;99.90;;;;;;4913809;29;20236;-91
2021/07/14 10:52:35;;;;;;;17.85;11.45;;;33.10;99.90;;;;;;4914244;29;20552;-93
2021/07/14 10:55:02;;;;;;;12.55;11.18;;;33.30;99.90;;;;;;4916147;29;20187;-91
2021/07/14 10:57:31;;;;;;;20.92;12.13;;;33.40;99.90;;;;;;4899155;29;20204;-90
2021/07/14 10:59:58;;;;;;;16.35;11.48;;;33.50;99.90;;;;;;4903047;29;20255;-93
2021/07/14 11:02:50;;;;;;;16.20;11.40;;;33.50;99.90;;;;;;4914530;29;20275;-88
2021/07/14 11:05:31;;;;;;;17.13;11.73;;;33.50;99.90;;;;;;4904315;29;20219;-89
2021/07/14 11:07:58;;;;;;;16.63;10.93;;;33.40;99.10;;;;;;4915874;29;20185;-93
2021/07/14 11:10:27;;;;;;;14.27;11.25;;;33.50;98.70;;;;;;4915344;29;20785;-90
2021/07/14 11:12:56;;;;;;;18.92;11.45;;;33.20;97.80;;;;;;4914336;29;20196;-92
2021/07/14 11:15:32;;;;;;;23.13;11.73;;;33.10;98.50;;;;;;4914311;29;20540;-90
2021/07/14 11:17:59;;;;;;;17.23;11.88;;;33.00;97.90;;;;;;4915522;29;20184;-89
2021/07/14 11:20:38;;;;;;;24.65;12.27;;;32.80;98.60;;;;;;4913605;29;20430;-89
2021/07/14 11:23:22;;;;;;;16.23;11.68;;;32.90;98.40;;;;;;4914288;29;20663;-91
2021/07/14 11:25:55;;;;;;;14.52;11.38;;;33.00;99.90;;;;;;4915403;29;20271;-89
2021/07/14 11:28:22;;;;;;;14.60;11.80;;;33.30;98.50;;;;;;4915179;29;20235;-91
2021/07/14 11:30:50;;;;;;;14.05;11.80;;;33.40;97.90;;;;;;4897988;29;20189;-92
2021/07/14 11:33:36;;;;;;;15.50;11.68;;;33.40;99.10;;;;;;4915563;29;20196;-91
2021/07/14 11:36:02;;;;;;;20.20;11.77;;;33.30;97.10;;;;;;4916175;29;20184;-92
2021/07/14 11:38:53;;;;;;;18.95;11.45;;;33.10;97.90;;;;;;4898389;29;20712;-91
2021/07/14 11:41:24;;;;;;;20.52;11.80;;;33.00;98.40;;;;;;4902326;29;20680;-90
2021/07/14 11:43:55;;;;;;;16.15;11.90;;;33.30;99.00;;;;;;4915559;29;20184;-90
2021/07/14 11:46:27;;;;;;;13.27;11.90;;;33.40;99.40;;;;;;4897915;29;20216;-90
2021/07/14 11:49:05;;;;;;;13.38;11.90;;;33.60;97.70;;;;;;4915305;29;20193;-89
2021/07/14 11:51:36;;;;;;;22.73;13.38;;;33.40;97.60;;;;;;4916553;29;20644;-89
2021/07/14 11:54:24;;;;;;;22.40;12.30;;;33.40;98.00;;;;;;4915096;29;20611;-89
2021/07/14 11:56:51;;;;;;;14.93;11.88;;;33.40;98.00;;;;;;4898180;29;20223;-92
2021/07/14 11:59:26;;;;;;;16.02;11.75;;;33.50;97.50;;;;;;4914700;29;20192;-92
2021/07/14 12:01:54;;;;;;;13.50;11.25;;;33.40;97.80;;;;;;4915133;29;20180;-91
2021/07/14 12:04:21;;;;;;;20.15;11.07;;;33.50;97.60;;;;;;4897460;29;20211;-90
2021/07/14 12:06:53;;;;;;;14.27;10.90;;;33.60;95.30;;;;;;4898766;29;20196;-92
2021/07/14 12:09:18;;;;;;;17.77;12.15;;;33.40;95.50;;;;;;4913730;29;20660;-90
2021/07/14 12:11:49;;;;;;;20.25;11.75;;;33.40;96.20;;;;;;4895856;29;20213;-91
2021/07/14 12:14:41;;;;;;;17.63;11.15;;;33.40;96.30;;;;;;4915043;29;20185;-93
2021/07/14 12:17:15;;;;;;;15.30;11.32;;;33.60;95.20;;;;;;4896552;29;20296;-91
2021/07/14 12:19:47;;;;;;;15.52;11.35;;;33.70;96.90;;;;;;4896445;29;20188;-90
2021/07/14 12:22:16;;;;;;;20.95;11.93;;;34.00;95.00;;;;;;4912707;29;20196;-91
2021/07/14 12:24:47;;;;;;;17.33;12.18;;;34.20;93.90;;;;;;4913839;29;20234;-90
2021/07/14 12:27:20;;;;;;;14.65;11.18;;;34.20;95.10;;;;;;4898406;29;20652;-92
2021/07/14 12:29:55;;;;;;;14.75;11.55;;;34.30;94.10;;;;;;4915122;29;20191;-90
2021/07/14 12:32:34;;;;;;;16.33;11.45;;;34.00;94.30;;;;;;4909116;29;20239;-92
2021/07/14 12:35:03;;;;;;;20.70;11.60;;;33.70;95.00;;;;;;4914739;29;20192;-90
2021/07/14 12:37:29;;;;;;;16.20;11.90;;;33.60;94.50;;;;;;4913170;29;20216;-91
2021/07/14 12:39:54;;;;;;;26.70;11.88;;;33.60;96.40;;;;;;4923107;29;20227;-92
2021/07/14 12:42:22;;;;;;;15.20;11.88;;;33.80;96.00;;;;;;4917557;29;20193;-91
2021/07/14 12:44:50;;;;;;;16.05;12.63;;;34.00;95.00;;;;;;4913531;29;20467;-90
2021/07/14 12:47:24;;;;;;;16.88;10.55;;;34.00;93.20;;;;;;4915377;29;20601;-90